Flight Track Log - Related Links

Times and Time Zones

All times are in EDT time to prevent confusion due to time zone crossing. See the N400PU flight status page for this flight to view local times or setup timezone preferences in your user account.

Time Position Orientation Groundspeed Altitude Reporting Facility
EDT Latitude Longitude Course Direction KTS MPH feet Rate Location/Type
Wed 02:46:50 PM 41.3128 -95.9064 351° North 148 170 1,600  Level Minneapolis Center
Wed 02:47:51 PM 41.3636 -95.9172 351° North 205 236 4,300 2,471 Climbing Minneapolis Center
Wed 02:48:15 PM 41.3797 -95.9092 21° North 205 236 5,100 3,000 Climbing Minneapolis Center
Wed 02:48:51 PM 41.4228 -95.8936 15° North 256 295 7,300 3,290 Climbing Minneapolis Center
Wed 02:49:17 PM 41.4286 -95.8436 81° East 245 282 8,500 2,754 Climbing Minneapolis Center
Wed 02:49:52 PM 41.4161 -95.7944 109° East 274 315 10,100 2,516 Climbing Minneapolis Center
Wed 02:50:19 PM 41.4036 -95.7489 110° East 262 302 11,100 2,090 Climbing Minneapolis Center
Wed 02:51:21 PM 41.3733 -95.6508 112° Southeast 273 314 13,200 2,016 Climbing Minneapolis Center
Wed 02:52:24 PM 41.3375 -95.5431 114° Southeast 305 351 15,300 2,064 Climbing Minneapolis Center
Wed 02:53:26 PM 41.2900 -95.4464 123° Southeast 312 359 17,500 1,887 Climbing Minneapolis Center
Wed 02:54:28 PM 41.2317 -95.3542 130° Southeast 322 371 19,200 1,645 Climbing Minneapolis Center
Wed 02:55:30 PM 41.1714 -95.2561 129° Southeast 338 389 20,900 1,984 Climbing Minneapolis Center
Wed 02:56:32 PM 41.0958 -95.1364 130° Southeast 349 402 23,300 1,984 Climbing Minneapolis Center
Wed 02:57:34 PM 41.0328 -95.0361 130° Southeast 352 405 25,000 1,645 Climbing Minneapolis Center
Wed 02:58:36 PM 40.9683 -94.9336 130° Southeast 359 413 26,700 1,548 Climbing Minneapolis Center
Wed 02:59:38 PM 40.9033 -94.8306 130° Southeast 363 418 28,200 1,500 Climbing Minneapolis Center
Wed 03:00:44 PM 40.8258 -94.7094 130° Southeast 361 415 29,900 1,359 Climbing Minneapolis Center
Wed 03:01:46 PM 40.7625 -94.6114 130° Southeast 353 406 31,100 1,016 Climbing Minneapolis Center
Wed 03:02:48 PM 40.7097 -94.5272 130° Southeast 349 402 32,000 823 Climbing Minneapolis Center
Wed 03:03:50 PM 40.6350 -94.4072 129° Southeast 354 407 32,800 677 Climbing Minneapolis Center
Wed 03:04:52 PM 40.5678 -94.3050 131° Southeast 366 421 33,400 726 Climbing Minneapolis Center
Wed 03:05:54 PM 40.5000 -94.2003 130° Southeast 376 433 34,300 774 Climbing Minneapolis Center
Wed 03:06:56 PM 40.4325 -94.0961 130° Southeast 378 435 35,000 677 Climbing Minneapolis Center
Wed 03:07:58 PM 40.3500 -93.9692 130° Southeast 382 440 35,700 611 Climbing Minneapolis Center
Wed 03:08:44 PM 40.3081 -93.9061 131° Southeast 381 438 36,100 611 Climbing Kansas City Center
Wed 03:09:46 PM 40.2253 -93.7814 131° Southeast 381 438 36,800 435 Climbing Kansas City Center
Wed 03:10:48 PM 40.1572 -93.6767 130° Southeast 382 440 37,000 97 Climbing Kansas City Center
Wed 03:11:50 PM 40.0858 -93.5686 131° Southeast 390 449 37,000  Level Kansas City Center
Wed 03:12:52 PM 40.0111 -93.4558 131° Southeast 406 467 37,000 97 Level Kansas City Center
Wed 03:13:54 PM 39.9369 -93.3433 131° Southeast 413 475 37,200 581 Climbing Kansas City Center
Wed 03:14:56 PM 39.8472 -93.2094 131° Southeast 414 476 38,200 871 Climbing Kansas City Center
Wed 03:15:58 PM 39.7753 -93.1008 131° Southeast 406 467 39,000 629 Climbing Kansas City Center
Wed 03:17:00 PM 39.7042 -92.9942 131° Southeast 400 460 39,500 435 Climbing Kansas City Center
Wed 03:18:02 PM 39.6308 -92.8861 131° Southeast 402 463 39,900 435 Climbing Kansas City Center
Wed 03:19:04 PM 39.5431 -92.7569 131° Southeast 403 464 40,400 387 Climbing Kansas City Center
Wed 03:20:06 PM 39.4683 -92.6478 132° Southeast 407 468 40,700 242 Climbing Kansas City Center
Wed 03:21:08 PM 39.3933 -92.5364 131° Southeast 411 473 40,900 146 Climbing Kansas City Center
Wed 03:22:09 PM 39.3161 -92.4247 132° Southeast 416 479 41,000 49 Climbing Kansas City Center
Wed 03:23:11 PM 39.2372 -92.3092 131° Southeast 421 484 41,000  Level Kansas City Center
Wed 03:24:13 PM 39.1389 -92.1667 132° Southeast 434 499 41,000  Level Kansas City Center
Wed 03:25:15 PM 39.0539 -92.0453 132° Southeast 449 517 41,000  Level Kansas City Center
Wed 03:26:17 PM 38.9678 -91.9294 134° Southeast 448 516 41,000  Level Kansas City Center
Wed 03:27:19 PM 38.8789 -91.8108 134° Southeast 455 524 41,000  Level Kansas City Center
Wed 03:28:21 PM 38.7839 -91.6847 134° Southeast 458 527 41,000  Level Kansas City Center
Wed 03:29:23 PM 38.6997 -91.5728 134° Southeast 461 531 41,000  Level Kansas City Center
Wed 03:30:25 PM 38.6128 -91.4561 134° Southeast 455 524 41,000  Level Kansas City Center
Wed 03:31:26 PM 38.5211 -91.3353 134° Southeast 455 524 41,000  Level Kansas City Center
Wed 03:32:28 PM 38.4336 -91.2203 134° Southeast 454 522 41,000  Level Kansas City Center
Wed 03:33:30 PM 38.3458 -91.1078 135° Southeast 452 520 41,000  Level Kansas City Center
Wed 03:34:32 PM 38.2417 -90.9694 134° Southeast 453 521 41,000  Level Kansas City Center
Wed 03:35:34 PM 38.1542 -90.8556 134° Southeast 454 522 41,000  Level Kansas City Center
Wed 03:36:36 PM 38.0656 -90.7433 135° Southeast 454 522 41,000  Level Kansas City Center
Wed 03:37:38 PM 37.9778 -90.6278 134° Southeast 457 526 41,000  Level Kansas City Center
Wed 03:38:40 PM 37.8914 -90.5161 134° Southeast 451 519 41,000  Level Kansas City Center
Wed 03:39:41 PM 37.7886 -90.3856 135° Southeast 442 509 41,000  Level Kansas City Center
Wed 03:40:43 PM 37.7069 -90.2800 134° Southeast 428 493 41,000  Level Kansas City Center
Wed 03:41:45 PM 37.6175 -90.1850 140° Southeast 424 488 41,000  Level Kansas City Center
Wed 03:42:47 PM 37.5208 -90.1042 146° Southeast 421 484 41,000  Level Kansas City Center
Wed 03:43:49 PM 37.4128 -90.0100 145° Southeast 424 488 41,000  Level Kansas City Center
Wed 03:44:51 PM 37.3153 -89.9222 144° Southeast 428 493 41,000  Level Kansas City Center
Wed 03:45:53 PM 37.2167 -89.8350 145° Southeast 431 496 41,000  Level Kansas City Center
Wed 03:46:54 PM 37.1194 -89.7492 145° Southeast 428 493 41,000  Level Kansas City Center
Wed 03:47:56 PM 37.0217 -89.6658 146° Southeast 424 488 41,000  Level Memphis Center
Wed 03:48:56 PM 36.9272 -89.5808 144° Southeast 424 488 41,000  Level Memphis Center
Wed 03:49:56 PM 36.8308 -89.4989 146° Southeast 424 488 41,000  Level Memphis Center
Wed 03:50:56 PM 36.7367 -89.4172 145° Southeast 424 488 41,000  Level Memphis Center
Wed 03:51:56 PM 36.6422 -89.3328 144° Southeast 424 488 41,000  Level Memphis Center
Wed 03:52:56 PM 36.5517 -89.2461 142° Southeast 419 482 41,000  Level Memphis Center
Wed 03:53:56 PM 36.4489 -89.1625 147° Southeast 426 490 41,000  Level Memphis Center
Wed 03:54:56 PM 36.3394 -89.0689 145° Southeast 431 496 41,000  Level Memphis Center
Wed 03:55:56 PM 36.2447 -88.9931 147° Southeast 425 489 41,000  Level Memphis Center
Wed 03:56:56 PM 36.1503 -88.9150 146° Southeast 418 481 41,000  Level Memphis Center
Wed 03:57:56 PM 36.0553 -88.8344 146° Southeast 418 481 41,000  Level Memphis Center
Wed 03:58:56 PM 35.9628 -88.7567 146° Southeast 418 481 41,000  Level Memphis Center
Wed 03:59:56 PM 35.8678 -88.6792 147° Southeast 418 481 41,000  Level Memphis Center
Wed 04:00:56 PM 35.7750 -88.5992 145° Southeast 418 481 41,000  Level Memphis Center
Wed 04:01:56 PM 35.6861 -88.5244 146° Southeast 411 473 41,000  Level Memphis Center
Wed 04:02:56 PM 35.5953 -88.4472 145° Southeast 406 467 41,000  Level Memphis Center
Wed 04:03:56 PM 35.5044 -88.3728 146° Southeast 406 467 41,000  Level Memphis Center
Wed 04:04:56 PM 35.4136 -88.2986 146° Southeast 401 461 41,000  Level Memphis Center
Wed 04:05:56 PM 35.3333 -88.2369 148° Southeast 396 456 41,000  Level Memphis Center
Wed 04:06:56 PM 35.2403 -88.1631 147° Southeast 396 456 41,000  Level Memphis Center
Wed 04:07:56 PM 35.1492 -88.0842 145° Southeast 396 456 41,000  Level Memphis Center
Wed 04:08:56 PM 35.0472 -87.9906 143° Southeast 409 471 41,000  Level Memphis Center
Wed 04:09:56 PM 34.9681 -87.8839 132° Southeast 409 471 41,000  Level Memphis Center
Wed 04:10:56 PM 34.9014 -87.7922 132° Southeast 414 476 41,000  Level Memphis Center
Wed 04:11:56 PM 34.8303 -87.6778 127° Southeast 420 483 41,000  Level Memphis Center
Wed 04:14:12 PM 34.6514 -87.4197 130° Southeast 436 502 41,000  Level Atlanta Center
Wed 04:15:12 PM 34.5833 -87.3186 129° Southeast 436 502 41,000  Level Atlanta Center
Wed 04:16:12 PM 34.5006 -87.2072 132° Southeast 436 502 41,000  Level Atlanta Center
Wed 04:17:12 PM 34.4242 -87.0983 130° Southeast 430 495 41,000  Level Atlanta Center
Wed 04:18:12 PM 34.3456 -86.9875 131° Southeast 430 495 41,000  Level Atlanta Center
Wed 04:19:12 PM 34.2686 -86.8817 131° Southeast 425 489 41,000  Level Atlanta Center
Wed 04:20:12 PM 34.1917 -86.7786 132° Southeast 418 481 41,000  Level Atlanta Center
Wed 04:21:12 PM 34.1167 -86.6708 130° Southeast 418 481 41,000  Level Atlanta Center
Wed 04:22:12 PM 34.0397 -86.5606 130° Southeast 423 487 41,000 50 Level Atlanta Center
Wed 04:23:12 PM 33.9539 -86.4706 139° Southeast 418 481 41,100  Climbing Atlanta Center
Wed 04:24:12 PM 33.8681 -86.3806 139° Southeast 418 481 41,000 -50 Descending Atlanta Center
Wed 04:25:12 PM 33.7903 -86.3008 140° Southeast 396 456 41,000  Level Atlanta Center
Wed 04:26:12 PM 33.7061 -86.2164 140° Southeast 391 450 41,000  Level Atlanta Center
Wed 04:27:12 PM 33.6242 -86.1269 138° Southeast 391 450 41,000  Level Atlanta Center
Wed 04:28:12 PM 33.5361 -86.0325 138° Southeast 396 456 41,000  Level Atlanta Center
Wed 04:29:12 PM 33.4478 -85.9433 140° Southeast 405 466 41,000  Level Atlanta Center
Wed 04:30:12 PM 33.3614 -85.8519 139° Southeast 410 472 41,000  Level Atlanta Center
Wed 04:31:12 PM 33.2731 -85.7606 139° Southeast 410 472 41,000  Level Atlanta Center
Wed 04:32:12 PM 33.1825 -85.6669 139° Southeast 423 487 41,000  Level Atlanta Center
Wed 04:33:12 PM 33.0917 -85.5736 139° Southeast 429 494 41,000  Level Atlanta Center
Wed 04:34:12 PM 32.9969 -85.4778 140° Southeast 429 494 41,000  Level Atlanta Center
Wed 04:35:12 PM 32.9267 -85.4025 138° Southeast 429 494 41,000  Level Atlanta Center
Wed 04:36:12 PM 32.8256 -85.3019 140° Southeast 429 494 41,000  Level Atlanta Center
Wed 04:37:12 PM 32.7347 -85.2094 139° Southeast 429 494 41,000  Level Atlanta Center
Wed 04:38:12 PM 32.6375 -85.1144 141° Southeast 434 499 41,000  Level Atlanta Center
Wed 04:39:12 PM 32.5506 -85.0222 138° Southeast 427 491 41,000  Level Atlanta Center
Wed 04:40:12 PM 32.4614 -84.9325 140° Southeast 427 491 41,000  Level Atlanta Center
Wed 04:41:12 PM 32.3681 -84.8431 141° Southeast 427 491 41,000  Level Atlanta Center
Wed 04:42:12 PM 32.2728 -84.7489 140° Southeast 421 484 41,000  Level Atlanta Center
Wed 04:43:12 PM 32.1833 -84.6597 140° Southeast 421 484 41,000  Level Atlanta Center
Wed 04:44:12 PM 32.0919 -84.5708 141° Southeast 426 490 41,000  Level Atlanta Center
Wed 04:45:12 PM 32.0025 -84.4772 138° Southeast 426 490 41,000  Level Atlanta Center
Wed 04:45:46 PM 31.9525 -84.4303 141° Southeast 436 502 41,000  Level Jacksonville Center
Wed 04:46:46 PM 31.8722 -84.3506 140° Southeast 424 488 41,000  Level Jacksonville Center
Wed 04:47:46 PM 31.7814 -84.2611 140° Southeast 424 488 41,000  Level Jacksonville Center
Wed 04:48:46 PM 31.6819 -84.1622 140° Southeast 424 488 41,000  Level Jacksonville Center
Wed 04:49:46 PM 31.5911 -84.0756 141° Southeast 424 488 41,000  Level Jacksonville Center
Wed 04:50:46 PM 31.5000 -83.9842 139° Southeast 424 488 41,000  Level Jacksonville Center
Wed 04:51:46 PM 31.4089 -83.8956 140° Southeast 424 488 41,000  Level Jacksonville Center
Wed 04:52:46 PM 31.3197 -83.8069 140° Southeast 429 494 41,000  Level Jacksonville Center
Wed 04:53:46 PM 31.2306 -83.7186 140° Southeast 424 488 41,000 -150 Level Jacksonville Center
Wed 04:54:46 PM 31.1414 -83.6306 140° Southeast 424 488 40,700 -1,300 Descending Jacksonville Center
Wed 04:55:46 PM 31.0500 -83.5450 141° Southeast 424 488 38,400 -2,250 Descending Jacksonville Center
Wed 04:56:46 PM 30.9647 -83.4572 139° Southeast 424 488 36,200 -2,150 Descending Jacksonville Center
Wed 04:57:46 PM 30.8753 -83.3717 141° Southeast 424 488 34,100 -2,250 Descending Jacksonville Center
Wed 04:58:46 PM 30.7858 -83.2844 140° Southeast 424 488 31,700 -2,350 Descending Jacksonville Center
Wed 04:59:46 PM 30.6964 -83.1897 138° Southeast 429 494 29,400 -2,300 Descending Jacksonville Center
Wed 05:00:46 PM 30.6047 -83.0978 139° Southeast 429 494 27,100 -1,200 Descending Jacksonville Center
Wed 05:01:46 PM 30.5086 -83.0011 139° Southeast 441 507 27,000 -700 Descending Jacksonville Center
Wed 05:02:46 PM 30.4147 -82.9022 138° Southeast 441 507 25,700 -1,000 Descending Jacksonville Center
Wed 05:03:46 PM 30.3186 -82.8058 139° Southeast 447 514 25,000 -350 Descending Jacksonville Center
Wed 05:04:46 PM 30.2267 -82.7100 138° Southeast 447 514 25,000  Level Jacksonville Center
Wed 05:05:46 PM 30.1472 -82.6308 139° Southeast 441 507 25,000  Level Jacksonville Center
Wed 05:06:46 PM 30.0531 -82.5375 139° Southeast 435 501 25,000  Level Jacksonville Center
Wed 05:07:46 PM 29.9525 -82.4347 138° Southeast 435 501 25,000  Level Jacksonville Center
Wed 05:08:46 PM 29.8686 -82.3608 143° Southeast 435 501 25,000  Level Jacksonville Center
Wed 05:09:46 PM 29.7722 -82.2847 146° Southeast 430 495 25,000  Level Jacksonville Center
Wed 05:10:46 PM 29.6717 -82.2067 146° Southeast 430 495 25,000 -150 Level Jacksonville Center
Wed 05:11:46 PM 29.5669 -82.1453 153° Southeast 430 495 24,700 -1,150 Descending Jacksonville Center
Wed 05:12:46 PM 29.4581 -82.0839 154° Southeast 425 489 22,700 -2,100 Descending Jacksonville Center
Wed 05:13:46 PM 29.3533 -82.0300 156° South 425 489 20,500 -2,150 Descending Jacksonville Center
Wed 05:14:46 PM 29.2486 -81.9764 156° South 420 483 18,400 -2,250 Descending Jacksonville Center
Wed 05:15:46 PM 29.1522 -81.9200 153° Southeast 409 471 16,000 -2,050 Descending Jacksonville Center
Wed 05:16:46 PM 29.0581 -81.9114 175° South 357 411 14,300 -1,650 Descending Jacksonville Center
Wed 05:17:46 PM 28.9728 -81.9219 186° South 339 390 12,700 -1,500 Descending Jacksonville Center
Wed 05:18:46 PM 28.9161 -81.8819 148° Southeast 270 311 11,300 -1,150 Descending Jacksonville Center
Wed 05:19:46 PM 28.9111 -81.7967 94° East 217 250 10,400 -1,200 Descending Jacksonville Center
Wed 05:20:46 PM 28.8772 -81.7308 120° Southeast 223 257 8,900 -1,630 Descending Jacksonville Center
Wed 05:21:18 PM 28.8500 -81.6833 123° Southeast 238 274 7,900 -1,253 Descending Orlando TRACON
Wed 05:22:17 PM 28.8167 -81.6333 127° Southeast 221 254 7,000 -474 Descending Orlando TRACON
Wed 05:23:12 PM 28.8000 -81.5667 106° East 230 265 7,000 -347 Level Orlando TRACON
Wed 05:24:18 PM 28.7833 -81.5000 106° East 222 255 6,300 -500 Descending Orlando TRACON
Wed 05:25:12 PM 28.7667 -81.4333 106° East 216 249 6,000 -316 Descending Orlando TRACON
Wed 05:26:12 PM 28.7500 -81.3833 111° Southeast 178 205 5,700 -526 Descending Orlando TRACON
Wed 05:27:06 PM 28.7333 -81.3333 111° Southeast 161 185 5,000 -429 Descending Orlando TRACON
Wed 05:28:18 PM 28.6833 -81.3333 180° South 164 189 4,800 -591 Descending Orlando TRACON
Wed 05:29:18 PM 28.6333 -81.3333 180° South 171 197 3,700 -1,000 Descending Orlando TRACON
Wed 05:30:18 PM 28.5833 -81.3333 180° South 170 196 2,800 -900 Descending Orlando TRACON
Wed 05:31:18 PM 28.5500 -81.3333 180° South 165 190 1,900 -789 Descending Orlando TRACON
Wed 05:32:12 PM 28.5167 -81.3333 180° South 136 157 1,300 -700 Descending Orlando TRACON
Wed 05:33:18 PM 28.4667 -81.3333 180° South 129 148 500 -727 Descending Orlando TRACON
Wed 05:35:00 PM 28.4294 -81.3090 180° South  Level Estimated
Wed 05:42:00 PM 28.4294 -81.3090 24° Northeast  Level Estimated
Wed 05:43:00 PM 28.4294 -81.3090 24° Northeast  Level Estimated
Wed 05:44:00 PM 28.4294 -81.3090 24° Northeast  Level Estimated

Login

Don't have an account? Register now (free) for customized features, flight alerts, and more!